sensor_id;sensor_type;location;lat;lon;timestamp;temperature;humidity
24678;DHT22;12800;53.094;8.778;2022-08-24T00:00:56;24.30;50.80
24678;DHT22;12800;53.094;8.778;2022-08-24T00:03:22;24.20;50.80
24678;DHT22;12800;53.094;8.778;2022-08-24T00:05:49;24.20;50.90
24678;DHT22;12800;53.094;8.778;2022-08-24T00:08:15;24.10;51.00
24678;DHT22;12800;53.094;8.778;2022-08-24T00:10:41;24.10;51.10
24678;DHT22;12800;53.094;8.778;2022-08-24T00:13:07;24.10;51.20
24678;DHT22;12800;53.094;8.778;2022-08-24T00:15:33;24.00;51.30
24678;DHT22;12800;53.094;8.778;2022-08-24T00:17:59;24.00;51.40
24678;DHT22;12800;53.094;8.778;2022-08-24T00:20:25;24.00;51.50
24678;DHT22;12800;53.094;8.778;2022-08-24T00:22:51;24.00;51.60
24678;DHT22;12800;53.094;8.778;2022-08-24T00:25:18;23.90;51.60
24678;DHT22;12800;53.094;8.778;2022-08-24T00:27:45;23.90;51.70
24678;DHT22;12800;53.094;8.778;2022-08-24T00:30:13;23.90;51.80
24678;DHT22;12800;53.094;8.778;2022-08-24T00:32:43;23.90;51.80
24678;DHT22;12800;53.094;8.778;2022-08-24T00:35:11;23.90;51.90
24678;DHT22;12800;53.094;8.778;2022-08-24T00:37:38;23.80;51.80
24678;DHT22;12800;53.094;8.778;2022-08-24T00:40:09;23.80;52.00
24678;DHT22;12800;53.094;8.778;2022-08-24T00:42:37;23.80;52.00
24678;DHT22;12800;53.094;8.778;2022-08-24T00:45:07;23.80;52.10
24678;DHT22;12800;53.094;8.778;2022-08-24T00:47:51;23.80;52.20
24678;DHT22;12800;53.094;8.778;2022-08-24T00:50:28;23.80;52.20
24678;DHT22;12800;53.094;8.778;2022-08-24T00:53:00;23.80;52.30
24678;DHT22;12800;53.094;8.778;2022-08-24T00:55:44;23.70;52.30
24678;DHT22;12800;53.094;8.778;2022-08-24T00:58:15;23.70;52.40
24678;DHT22;12800;53.094;8.778;2022-08-24T01:00:45;23.70;52.40
24678;DHT22;12800;53.094;8.778;2022-08-24T01:03:12;23.70;52.50
24678;DHT22;12800;53.094;8.778;2022-08-24T01:05:39;23.70;52.50
24678;DHT22;12800;53.094;8.778;2022-08-24T01:08:07;23.70;52.50
24678;DHT22;12800;53.094;8.778;2022-08-24T01:10:42;23.70;52.60
24678;DHT22;12800;53.094;8.778;2022-08-24T01:13:10;23.70;52.70
24678;DHT22;12800;53.094;8.778;2022-08-24T01:15:39;23.70;52.70
24678;DHT22;12800;53.094;8.778;2022-08-24T01:18:07;23.70;52.70
24678;DHT22;12800;53.094;8.778;2022-08-24T01:21:05;23.70;52.80
24678;DHT22;12800;53.094;8.778;2022-08-24T01:23:52;23.70;52.80
24678;DHT22;12800;53.094;8.778;2022-08-24T01:26:46;23.70;52.90
24678;DHT22;12800;53.094;8.778;2022-08-24T01:29:15;23.70;52.90
24678;DHT22;12800;53.094;8.778;2022-08-24T01:31:40;23.70;53.00
24678;DHT22;12800;53.094;8.778;2022-08-24T01:34:06;23.60;53.00
24678;DHT22;12800;53.094;8.778;2022-08-24T01:36:52;23.60;53.00
24678;DHT22;12800;53.094;8.778;2022-08-24T01:39:29;23.60;53.10
24678;DHT22;12800;53.094;8.778;2022-08-24T01:41:56;23.60;53.20
24678;DHT22;12800;53.094;8.778;2022-08-24T01:44:24;23.60;53.30
24678;DHT22;12800;53.094;8.778;2022-08-24T01:46:52;23.50;53.30
24678;DHT22;12800;53.094;8.778;2022-08-24T01:49:19;23.50;53.40
24678;DHT22;12800;53.094;8.778;2022-08-24T01:51:44;23.50;53.50
24678;DHT22;12800;53.094;8.778;2022-08-24T01:54:11;23.50;53.60
24678;DHT22;12800;53.094;8.778;2022-08-24T01:56:37;23.40;53.60
24678;DHT22;12800;53.094;8.778;2022-08-24T01:59:03;23.40;53.60
24678;DHT22;12800;53.094;8.778;2022-08-24T02:01:32;23.40;53.80
24678;DHT22;12800;53.094;8.778;2022-08-24T02:03:59;23.40;53.80
24678;DHT22;12800;53.094;8.778;2022-08-24T02:06:26;23.40;53.90
24678;DHT22;12800;53.094;8.778;2022-08-24T02:08:52;23.40;53.90
24678;DHT22;12800;53.094;8.778;2022-08-24T02:11:18;23.30;54.00
24678;DHT22;12800;53.094;8.778;2022-08-24T02:13:43;23.30;54.20
24678;DHT22;12800;53.094;8.778;2022-08-24T02:16:09;23.30;54.90
24678;DHT22;12800;53.094;8.778;2022-08-24T02:18:36;23.20;54.20
24678;DHT22;12800;53.094;8.778;2022-08-24T02:21:01;23.20;54.30
24678;DHT22;12800;53.094;8.778;2022-08-24T02:23:28;23.20;54.40
24678;DHT22;12800;53.094;8.778;2022-08-24T02:25:54;23.10;54.50
24678;DHT22;12800;53.094;8.778;2022-08-24T02:28:20;23.10;54.50
24678;DHT22;12800;53.094;8.778;2022-08-24T02:30:46;23.10;54.70
24678;DHT22;12800;53.094;8.778;2022-08-24T02:33:12;23.10;54.80
24678;DHT22;12800;53.094;8.778;2022-08-24T02:35:38;23.00;54.70
24678;DHT22;12800;53.094;8.778;2022-08-24T02:38:05;23.00;54.80
24678;DHT22;12800;53.094;8.778;2022-08-24T02:40:30;23.00;55.00
24678;DHT22;12800;53.094;8.778;2022-08-24T02:42:57;23.00;55.00
24678;DHT22;12800;53.094;8.778;2022-08-24T02:45:23;22.90;55.10
24678;DHT22;12800;53.094;8.778;2022-08-24T02:47:48;22.90;55.10
24678;DHT22;12800;53.094;8.778;2022-08-24T02:50:15;22.80;55.20
24678;DHT22;12800;53.094;8.778;2022-08-24T02:52:42;22.80;55.30
24678;DHT22;12800;53.094;8.778;2022-08-24T02:55:11;22.80;55.40
24678;DHT22;12800;53.094;8.778;2022-08-24T02:57:36;22.80;55.60
24678;DHT22;12800;53.094;8.778;2022-08-24T03:00:05;22.70;55.60
24678;DHT22;12800;53.094;8.778;2022-08-24T03:02:32;22.70;55.70
24678;DHT22;12800;53.094;8.778;2022-08-24T03:04:58;22.70;55.70
24678;DHT22;12800;53.094;8.778;2022-08-24T03:07:23;22.70;55.80
24678;DHT22;12800;53.094;8.778;2022-08-24T03:09:49;22.60;55.80
24678;DHT22;12800;53.094;8.778;2022-08-24T03:12:15;22.60;56.00
24678;DHT22;12800;53.094;8.778;2022-08-24T03:14:40;22.60;56.00
24678;DHT22;12800;53.094;8.778;2022-08-24T03:17:06;22.50;56.00
24678;DHT22;12800;53.094;8.778;2022-08-24T03:19:32;22.50;56.10
24678;DHT22;12800;53.094;8.778;2022-08-24T03:21:58;22.50;56.20
24678;DHT22;12800;53.094;8.778;2022-08-24T03:24:23;22.50;56.20
24678;DHT22;12800;53.094;8.778;2022-08-24T03:26:49;22.50;56.30
24678;DHT22;12800;53.094;8.778;2022-08-24T03:29:15;22.50;56.40
24678;DHT22;12800;53.094;8.778;2022-08-24T03:31:40;22.50;56.50
24678;DHT22;12800;53.094;8.778;2022-08-24T03:34:06;22.40;56.40
24678;DHT22;12800;53.094;8.778;2022-08-24T03:36:32;22.40;56.50
24678;DHT22;12800;53.094;8.778;2022-08-24T03:38:57;22.40;56.60
24678;DHT22;12800;53.094;8.778;2022-08-24T03:41:23;22.40;56.80
24678;DHT22;12800;53.094;8.778;2022-08-24T03:43:49;22.40;56.90
24678;DHT22;12800;53.094;8.778;2022-08-24T03:46:18;22.40;56.80
24678;DHT22;12800;53.094;8.778;2022-08-24T03:48:44;22.40;56.80
24678;DHT22;12800;53.094;8.778;2022-08-24T03:51:12;22.40;56.90
24678;DHT22;12800;53.094;8.778;2022-08-24T03:53:37;22.30;56.90
24678;DHT22;12800;53.094;8.778;2022-08-24T03:56:03;22.40;57.00
24678;DHT22;12800;53.094;8.778;2022-08-24T03:58:29;22.40;56.90
24678;DHT22;12800;53.094;8.778;2022-08-24T04:00:54;22.40;57.00
24678;DHT22;12800;53.094;8.778;2022-08-24T04:03:20;22.30;57.00
24678;DHT22;12800;53.094;8.778;2022-08-24T04:05:46;22.30;57.00
24678;DHT22;12800;53.094;8.778;2022-08-24T04:08:12;22.30;57.10
24678;DHT22;12800;53.094;8.778;2022-08-24T04:10:43;22.30;57.20
24678;DHT22;12800;53.094;8.778;2022-08-24T04:13:09;22.30;57.20
24678;DHT22;12800;53.094;8.778;2022-08-24T04:15:39;22.30;57.30
24678;DHT22;12800;53.094;8.778;2022-08-24T04:18:05;22.20;57.20
24678;DHT22;12800;53.094;8.778;2022-08-24T04:20:31;22.20;57.40
24678;DHT22;12800;53.094;8.778;2022-08-24T04:23:01;22.20;57.40
24678;DHT22;12800;53.094;8.778;2022-08-24T04:25:27;22.20;57.40
24678;DHT22;12800;53.094;8.778;2022-08-24T04:27:52;22.20;57.50
24678;DHT22;12800;53.094;8.778;2022-08-24T04:30:18;22.10;57.50
24678;DHT22;12800;53.094;8.778;2022-08-24T04:32:44;22.10;57.60
24678;DHT22;12800;53.094;8.778;2022-08-24T04:35:09;22.10;57.90
24678;DHT22;12800;53.094;8.778;2022-08-24T04:37:35;22.10;57.90
24678;DHT22;12800;53.094;8.778;2022-08-24T04:40:02;22.10;57.90
24678;DHT22;12800;53.094;8.778;2022-08-24T04:42:27;22.10;57.90
24678;DHT22;12800;53.094;8.778;2022-08-24T04:44:55;22.10;57.90
24678;DHT22;12800;53.094;8.778;2022-08-24T04:47:21;22.10;58.00
24678;DHT22;12800;53.094;8.778;2022-08-24T04:49:47;22.10;58.00
24678;DHT22;12800;53.094;8.778;2022-08-24T04:52:12;22.10;58.10
24678;DHT22;12800;53.094;8.778;2022-08-24T04:54:38;22.10;58.10
24678;DHT22;12800;53.094;8.778;2022-08-24T04:57:04;22.10;58.10
24678;DHT22;12800;53.094;8.778;2022-08-24T04:59:29;22.10;58.10
24678;DHT22;12800;53.094;8.778;2022-08-24T05:01:55;22.10;58.20
24678;DHT22;12800;53.094;8.778;2022-08-24T05:04:21;22.10;58.20
24678;DHT22;12800;53.094;8.778;2022-08-24T05:06:47;22.10;58.30
24678;DHT22;12800;53.094;8.778;2022-08-24T05:09:12;22.10;58.30
24678;DHT22;12800;53.094;8.778;2022-08-24T05:11:38;22.10;58.30
24678;DHT22;12800;53.094;8.778;2022-08-24T05:14:05;22.10;58.30
24678;DHT22;12800;53.094;8.778;2022-08-24T05:16:31;22.10;58.30
24678;DHT22;12800;53.094;8.778;2022-08-24T05:18:59;22.10;58.30
24678;DHT22;12800;53.094;8.778;2022-08-24T05:21:26;22.10;58.40
24678;DHT22;12800;53.094;8.778;2022-08-24T05:23:53;22.20;58.40
24678;DHT22;12800;53.094;8.778;2022-08-24T05:26:23;22.20;58.40
24678;DHT22;12800;53.094;8.778;2022-08-24T05:28:49;22.20;58.40
24678;DHT22;12800;53.094;8.778;2022-08-24T05:31:20;22.30;58.50
24678;DHT22;12800;53.094;8.778;2022-08-24T05:33:46;22.30;58.50
24678;DHT22;12800;53.094;8.778;2022-08-24T05:36:21;22.40;58.50
24678;DHT22;12800;53.094;8.778;2022-08-24T05:38:49;22.40;58.40
24678;DHT22;12800;53.094;8.778;2022-08-24T05:41:15;22.40;58.40
24678;DHT22;12800;53.094;8.778;2022-08-24T05:43:42;22.40;58.30
24678;DHT22;12800;53.094;8.778;2022-08-24T05:46:08;22.50;58.30
24678;DHT22;12800;53.094;8.778;2022-08-24T05:48:33;22.50;58.20
24678;DHT22;12800;53.094;8.778;2022-08-24T05:51:00;22.60;58.20
24678;DHT22;12800;53.094;8.778;2022-08-24T05:53:26;22.60;58.20
24678;DHT22;12800;53.094;8.778;2022-08-24T05:55:51;22.70;58.10
24678;DHT22;12800;53.094;8.778;2022-08-24T05:58:17;22.70;58.10
24678;DHT22;12800;53.094;8.778;2022-08-24T06:00:43;22.70;58.00
24678;DHT22;12800;53.094;8.778;2022-08-24T06:03:13;22.70;58.10
24678;DHT22;12800;53.094;8.778;2022-08-24T06:05:42;22.70;58.00
24678;DHT22;12800;53.094;8.778;2022-08-24T06:08:09;22.70;58.00
24678;DHT22;12800;53.094;8.778;2022-08-24T06:10:43;22.70;58.00
24678;DHT22;12800;53.094;8.778;2022-08-24T06:13:10;22.70;58.00
24678;DHT22;12800;53.094;8.778;2022-08-24T06:15:37;22.70;58.00
24678;DHT22;12800;53.094;8.778;2022-08-24T06:18:04;22.70;58.00
24678;DHT22;12800;53.094;8.778;2022-08-24T06:20:31;22.70;58.10
24678;DHT22;12800;53.094;8.778;2022-08-24T06:22:57;22.70;58.10
24678;DHT22;12800;53.094;8.778;2022-08-24T06:25:23;22.70;58.10
24678;DHT22;12800;53.094;8.778;2022-08-24T06:28:07;22.70;58.20
24678;DHT22;12800;53.094;8.778;2022-08-24T06:30:33;22.70;58.20
24678;DHT22;12800;53.094;8.778;2022-08-24T06:33:00;22.70;58.20
24678;DHT22;12800;53.094;8.778;2022-08-24T06:35:26;22.70;58.30
24678;DHT22;12800;53.094;8.778;2022-08-24T06:37:52;22.70;58.30
24678;DHT22;12800;53.094;8.778;2022-08-24T06:40:17;22.70;58.30
24678;DHT22;12800;53.094;8.778;2022-08-24T06:42:45;22.70;58.30
24678;DHT22;12800;53.094;8.778;2022-08-24T06:45:11;22.80;58.40
24678;DHT22;12800;53.094;8.778;2022-08-24T06:47:37;22.80;58.30
24678;DHT22;12800;53.094;8.778;2022-08-24T06:50:03;22.90;58.20
24678;DHT22;12800;53.094;8.778;2022-08-24T06:52:30;23.00;58.20
24678;DHT22;12800;53.094;8.778;2022-08-24T06:54:55;23.00;58.20
24678;DHT22;12800;53.094;8.778;2022-08-24T06:57:21;23.10;58.80
24678;DHT22;12800;53.094;8.778;2022-08-24T06:59:47;23.10;58.00
24678;DHT22;12800;53.094;8.778;2022-08-24T07:02:13;23.20;58.00
24678;DHT22;12800;53.094;8.778;2022-08-24T07:04:40;23.20;57.90
24678;DHT22;12800;53.094;8.778;2022-08-24T07:07:07;23.20;57.90
24678;DHT22;12800;53.094;8.778;2022-08-24T07:09:32;23.20;57.90
24678;DHT22;12800;53.094;8.778;2022-08-24T07:11:58;23.30;58.10
24678;DHT22;12800;53.094;8.778;2022-08-24T07:14:24;23.30;58.10
24678;DHT22;12800;53.094;8.778;2022-08-24T07:16:50;23.40;58.00
24678;DHT22;12800;53.094;8.778;2022-08-24T07:19:16;23.40;57.90
24678;DHT22;12800;53.094;8.778;2022-08-24T07:21:42;23.50;58.00
24678;DHT22;12800;53.094;8.778;2022-08-24T07:24:07;23.50;57.90
24678;DHT22;12800;53.094;8.778;2022-08-24T07:26:33;23.60;57.80
24678;DHT22;12800;53.094;8.778;2022-08-24T07:29:02;23.70;57.70
24678;DHT22;12800;53.094;8.778;2022-08-24T07:31:32;23.80;57.50
24678;DHT22;12800;53.094;8.778;2022-08-24T07:33:58;23.80;57.50
24678;DHT22;12800;53.094;8.778;2022-08-24T07:36:24;23.90;57.40
24678;DHT22;12800;53.094;8.778;2022-08-24T07:38:50;24.00;57.20
24678;DHT22;12800;53.094;8.778;2022-08-24T07:41:16;24.00;57.10
24678;DHT22;12800;53.094;8.778;2022-08-24T07:43:49;24.00;56.90
24678;DHT22;12800;53.094;8.778;2022-08-24T07:46:15;24.20;57.00
24678;DHT22;12800;53.094;8.778;2022-08-24T07:48:41;24.20;56.80
24678;DHT22;12800;53.094;8.778;2022-08-24T07:51:08;24.20;56.70
24678;DHT22;12800;53.094;8.778;2022-08-24T07:53:34;24.20;56.60
24678;DHT22;12800;53.094;8.778;2022-08-24T07:56:00;24.30;57.20
24678;DHT22;12800;53.094;8.778;2022-08-24T07:58:26;24.30;56.50
24678;DHT22;12800;53.094;8.778;2022-08-24T08:00:52;24.40;57.20
24678;DHT22;12800;53.094;8.778;2022-08-24T08:03:18;24.40;56.60
24678;DHT22;12800;53.094;8.778;2022-08-24T08:05:44;24.50;56.30
24678;DHT22;12800;53.094;8.778;2022-08-24T08:08:09;24.50;56.10
24678;DHT22;12800;53.094;8.778;2022-08-24T08:10:36;24.60;56.00
24678;DHT22;12800;53.094;8.778;2022-08-24T08:13:06;24.70;56.50
24678;DHT22;12800;53.094;8.778;2022-08-24T08:15:32;24.70;55.70
24678;DHT22;12800;53.094;8.778;2022-08-24T08:17:58;24.80;55.60
24678;DHT22;12800;53.094;8.778;2022-08-24T08:20:24;24.90;55.50
24678;DHT22;12800;53.094;8.778;2022-08-24T08:22:49;24.90;55.50
24678;DHT22;12800;53.094;8.778;2022-08-24T08:25:34;25.00;55.40
24678;DHT22;12800;53.094;8.778;2022-08-24T08:28:04;25.10;55.10
24678;DHT22;12800;53.094;8.778;2022-08-24T08:30:30;25.20;55.00
24678;DHT22;12800;53.094;8.778;2022-08-24T08:32:56;25.20;55.00
24678;DHT22;12800;53.094;8.778;2022-08-24T08:35:22;25.30;54.70
24678;DHT22;12800;53.094;8.778;2022-08-24T08:37:48;25.40;54.50
24678;DHT22;12800;53.094;8.778;2022-08-24T08:49:13;25.60;54.20
24678;DHT22;12800;53.094;8.778;2022-08-24T08:57:02;25.70;53.90
24678;DHT22;12800;53.094;8.778;2022-08-24T09:08:05;26.00;52.90
24678;DHT22;12800;53.094;8.778;2022-08-24T09:16:06;26.20;52.00
24678;DHT22;12800;53.094;8.778;2022-08-24T09:30:12;26.50;51.40
24678;DHT22;12800;53.094;8.778;2022-08-24T09:44:24;26.90;50.80
24678;DHT22;12800;53.094;8.778;2022-08-24T10:08:32;27.50;49.80
24678;DHT22;12800;53.094;8.778;2022-08-24T10:11:08;27.50;49.50
24678;DHT22;12800;53.094;8.778;2022-08-24T10:16:51;27.60;49.20
24678;DHT22;12800;53.094;8.778;2022-08-24T10:22:52;27.70;48.90
24678;DHT22;12800;53.094;8.778;2022-08-24T10:25:40;27.80;48.90
24678;DHT22;12800;53.094;8.778;2022-08-24T10:31:01;27.90;48.30
24678;DHT22;12800;53.094;8.778;2022-08-24T10:55:56;28.60;47.00
24678;DHT22;12800;53.094;8.778;2022-08-24T10:58:44;28.70;46.90
24678;DHT22;12800;53.094;8.778;2022-08-24T11:06:19;28.90;46.50
24678;DHT22;12800;53.094;8.778;2022-08-24T11:08:55;29.00;46.20
24678;DHT22;12800;53.094;8.778;2022-08-24T11:11:39;29.10;46.70
24678;DHT22;12800;53.094;8.778;2022-08-24T11:14:27;29.10;45.80
24678;DHT22;12800;53.094;8.778;2022-08-24T11:17:16;29.20;45.60
24678;DHT22;12800;53.094;8.778;2022-08-24T11:19:43;29.20;45.40
24678;DHT22;12800;53.094;8.778;2022-08-24T11:25:06;29.30;44.90
24678;DHT22;12800;53.094;8.778;2022-08-24T11:27:38;29.40;45.00
24678;DHT22;12800;53.094;8.778;2022-08-24T11:32:54;29.50;44.70
24678;DHT22;12800;53.094;8.778;2022-08-24T11:37:52;29.60;44.30
24678;DHT22;12800;53.094;8.778;2022-08-24T11:40:21;29.70;44.40
24678;DHT22;12800;53.094;8.778;2022-08-24T11:43:14;29.80;44.00
24678;DHT22;12800;53.094;8.778;2022-08-24T11:48:24;29.90;43.60
24678;DHT22;12800;53.094;8.778;2022-08-24T11:50:57;30.10;43.50
24678;DHT22;12800;53.094;8.778;2022-08-24T11:56:37;30.30;43.70
24678;DHT22;12800;53.094;8.778;2022-08-24T12:01:59;30.40;42.70
24678;DHT22;12800;53.094;8.778;2022-08-24T12:10:09;30.50;42.30
24678;DHT22;12800;53.094;8.778;2022-08-24T12:13:00;30.50;42.30
24678;DHT22;12800;53.094;8.778;2022-08-24T12:16:08;30.60;42.30
24678;DHT22;12800;53.094;8.778;2022-08-24T12:21:28;30.70;42.10
24678;DHT22;12800;53.094;8.778;2022-08-24T12:24:08;30.80;42.00
24678;DHT22;12800;53.094;8.778;2022-08-24T12:26:41;30.90;41.90
24678;DHT22;12800;53.094;8.778;2022-08-24T12:29:24;31.00;41.70
24678;DHT22;12800;53.094;8.778;2022-08-24T12:31:57;31.00;41.50
24678;DHT22;12800;53.094;8.778;2022-08-24T12:34:50;31.10;41.30
24678;DHT22;12800;53.094;8.778;2022-08-24T12:37:47;31.10;41.30
24678;DHT22;12800;53.094;8.778;2022-08-24T12:42:52;31.20;41.00
24678;DHT22;12800;53.094;8.778;2022-08-24T12:45:22;31.30;41.00
24678;DHT22;12800;53.094;8.778;2022-08-24T12:48:13;31.40;40.90
24678;DHT22;12800;53.094;8.778;2022-08-24T13:01:43;31.60;40.30
24678;DHT22;12800;53.094;8.778;2022-08-24T13:14:48;31.90;39.70
24678;DHT22;12800;53.094;8.778;2022-08-24T13:17:17;32.00;39.60
24678;DHT22;12800;53.094;8.778;2022-08-24T13:19:45;32.00;39.30
24678;DHT22;12800;53.094;8.778;2022-08-24T13:29:48;32.10;39.10
24678;DHT22;12800;53.094;8.778;2022-08-24T13:32:31;32.20;39.20
24678;DHT22;12800;53.094;8.778;2022-08-24T13:40:59;32.50;38.80
24678;DHT22;12800;53.094;8.778;2022-08-24T13:43:32;32.60;38.50
24678;DHT22;12800;53.094;8.778;2022-08-24T13:46:16;32.70;38.40
24678;DHT22;12800;53.094;8.778;2022-08-24T13:49:00;32.80;38.20
24678;DHT22;12800;53.094;8.778;2022-08-24T14:05:12;33.20;37.50
24678;DHT22;12800;53.094;8.778;2022-08-24T14:08:09;33.30;37.20
24678;DHT22;12800;53.094;8.778;2022-08-24T14:11:11;33.30;37.00
24678;DHT22;12800;53.094;8.778;2022-08-24T14:14:01;33.30;37.00
24678;DHT22;12800;53.094;8.778;2022-08-24T14:16:59;33.40;36.70
24678;DHT22;12800;53.094;8.778;2022-08-24T14:25:24;33.60;36.70
24678;DHT22;12800;53.094;8.778;2022-08-24T14:33:19;33.80;36.20
24678;DHT22;12800;53.094;8.778;2022-08-24T14:36:10;33.90;35.80
24678;DHT22;12800;53.094;8.778;2022-08-24T14:38:57;33.80;35.70
24678;DHT22;12800;53.094;8.778;2022-08-24T14:41:39;33.90;35.80
24678;DHT22;12800;53.094;8.778;2022-08-24T14:47:06;34.10;35.60
24678;DHT22;12800;53.094;8.778;2022-08-24T14:52:50;34.10;35.30
24678;DHT22;12800;53.094;8.778;2022-08-24T15:06:10;34.20;36.10
24678;DHT22;12800;53.094;8.778;2022-08-24T15:08:44;34.30;35.90
24678;DHT22;12800;53.094;8.778;2022-08-24T15:11:30;34.40;36.00
24678;DHT22;12800;53.094;8.778;2022-08-24T15:14:01;34.40;35.80
24678;DHT22;12800;53.094;8.778;2022-08-24T15:24:37;34.50;35.50
24678;DHT22;12800;53.094;8.778;2022-08-24T15:27:09;34.70;35.20
24678;DHT22;12800;53.094;8.778;2022-08-24T15:29:52;35.00;35.10
24678;DHT22;12800;53.094;8.778;2022-08-24T15:32:19;35.30;34.30
24678;DHT22;12800;53.094;8.778;2022-08-24T15:34:54;35.60;34.30
24678;DHT22;12800;53.094;8.778;2022-08-24T15:37:35;36.00;34.00
24678;DHT22;12800;53.094;8.778;2022-08-24T15:40:10;36.30;33.60
24678;DHT22;12800;53.094;8.778;2022-08-24T15:42:40;36.50;33.30
24678;DHT22;12800;53.094;8.778;2022-08-24T15:45:06;36.60;33.00
24678;DHT22;12800;53.094;8.778;2022-08-24T15:47:35;36.70;32.70
24678;DHT22;12800;53.094;8.778;2022-08-24T15:50:41;36.50;32.70
24678;DHT22;12800;53.094;8.778;2022-08-24T15:53:06;36.50;32.90
24678;DHT22;12800;53.094;8.778;2022-08-24T15:55:45;36.30;32.60
24678;DHT22;12800;53.094;8.778;2022-08-24T16:01:20;36.10;32.70
24678;DHT22;12800;53.094;8.778;2022-08-24T16:04:15;36.00;32.80
24678;DHT22;12800;53.094;8.778;2022-08-24T16:06:58;35.90;33.30
24678;DHT22;12800;53.094;8.778;2022-08-24T16:12:10;35.90;33.10
24678;DHT22;12800;53.094;8.778;2022-08-24T16:14:38;35.80;33.00
24678;DHT22;12800;53.094;8.778;2022-08-24T16:17:28;35.80;33.20
24678;DHT22;12800;53.094;8.778;2022-08-24T16:20:10;35.60;33.00
24678;DHT22;12800;53.094;8.778;2022-08-24T16:22:47;35.60;33.10
24678;DHT22;12800;53.094;8.778;2022-08-24T16:25:24;35.50;33.70
24678;DHT22;12800;53.094;8.778;2022-08-24T16:30:51;35.40;33.10
24678;DHT22;12800;53.094;8.778;2022-08-24T16:33:46;35.20;33.10
24678;DHT22;12800;53.094;8.778;2022-08-24T16:36:17;35.20;33.50
24678;DHT22;12800;53.094;8.778;2022-08-24T16:38:49;35.10;33.40
24678;DHT22;12800;53.094;8.778;2022-08-24T16:41:20;35.10;33.20
24678;DHT22;12800;53.094;8.778;2022-08-24T16:43:47;35.00;33.30
24678;DHT22;12800;53.094;8.778;2022-08-24T16:46:18;34.90;33.10
24678;DHT22;12800;53.094;8.778;2022-08-24T16:48:44;34.90;33.10
24678;DHT22;12800;53.094;8.778;2022-08-24T16:51:10;34.80;33.10
24678;DHT22;12800;53.094;8.778;2022-08-24T16:53:36;34.60;33.20
24678;DHT22;12800;53.094;8.778;2022-08-24T16:56:02;34.40;33.40
24678;DHT22;12800;53.094;8.778;2022-08-24T16:58:33;34.00;33.60
24678;DHT22;12800;53.094;8.778;2022-08-24T17:00:59;33.70;33.80
24678;DHT22;12800;53.094;8.778;2022-08-24T17:03:26;33.30;34.00
24678;DHT22;12800;53.094;8.778;2022-08-24T17:05:51;33.10;34.60
24678;DHT22;12800;53.094;8.778;2022-08-24T17:08:17;32.80;34.80
24678;DHT22;12800;53.094;8.778;2022-08-24T17:10:43;32.60;35.10
24678;DHT22;12800;53.094;8.778;2022-08-24T17:13:08;32.30;35.60
24678;DHT22;12800;53.094;8.778;2022-08-24T17:15:35;32.10;35.90
24678;DHT22;12800;53.094;8.778;2022-08-24T17:18:04;31.90;36.20
24678;DHT22;12800;53.094;8.778;2022-08-24T17:20:30;31.80;36.60
24678;DHT22;12800;53.094;8.778;2022-08-24T17:22:57;31.60;36.60
24678;DHT22;12800;53.094;8.778;2022-08-24T17:25:24;31.50;36.80
24678;DHT22;12800;53.094;8.778;2022-08-24T17:27:52;31.30;37.00
24678;DHT22;12800;53.094;8.778;2022-08-24T17:30:18;31.20;37.20
24678;DHT22;12800;53.094;8.778;2022-08-24T17:32:45;31.10;37.50
24678;DHT22;12800;53.094;8.778;2022-08-24T17:35:13;31.00;37.70
24678;DHT22;12800;53.094;8.778;2022-08-24T17:37:39;30.90;38.00
24678;DHT22;12800;53.094;8.778;2022-08-24T17:40:09;30.80;38.40
24678;DHT22;12800;53.094;8.778;2022-08-24T17:42:35;30.70;38.90
24678;DHT22;12800;53.094;8.778;2022-08-24T17:45:01;30.60;38.70
24678;DHT22;12800;53.094;8.778;2022-08-24T17:47:27;30.50;38.80
24678;DHT22;12800;53.094;8.778;2022-08-24T17:49:53;30.40;39.10
24678;DHT22;12800;53.094;8.778;2022-08-24T17:52:18;30.40;39.30
24678;DHT22;12800;53.094;8.778;2022-08-24T17:54:44;30.30;39.70
24678;DHT22;12800;53.094;8.778;2022-08-24T17:57:11;30.20;40.00
24678;DHT22;12800;53.094;8.778;2022-08-24T17:59:37;30.10;39.80
24678;DHT22;12800;53.094;8.778;2022-08-24T18:02:06;30.10;40.20
24678;DHT22;12800;53.094;8.778;2022-08-24T18:04:33;30.00;40.30
24678;DHT22;12800;53.094;8.778;2022-08-24T18:07:00;30.00;40.80
24678;DHT22;12800;53.094;8.778;2022-08-24T18:09:37;29.90;41.00
24678;DHT22;12800;53.094;8.778;2022-08-24T18:12:05;29.80;40.90
24678;DHT22;12800;53.094;8.778;2022-08-24T18:14:31;29.70;41.00
24678;DHT22;12800;53.094;8.778;2022-08-24T18:17:02;29.70;41.20
24678;DHT22;12800;53.094;8.778;2022-08-24T18:19:29;29.60;41.40
24678;DHT22;12800;53.094;8.778;2022-08-24T18:21:55;29.50;41.60
24678;DHT22;12800;53.094;8.778;2022-08-24T18:24:21;29.50;42.00
24678;DHT22;12800;53.094;8.778;2022-08-24T18:26:47;29.40;42.30
24678;DHT22;12800;53.094;8.778;2022-08-24T18:29:16;29.30;42.60
24678;DHT22;12800;53.094;8.778;2022-08-24T18:31:43;29.30;43.00
24678;DHT22;12800;53.094;8.778;2022-08-24T18:34:11;29.20;43.30
24678;DHT22;12800;53.094;8.778;2022-08-24T18:36:37;29.10;43.60
24678;DHT22;12800;53.094;8.778;2022-08-24T18:39:03;29.10;44.00
24678;DHT22;12800;53.094;8.778;2022-08-24T18:41:33;29.00;44.20
24678;DHT22;12800;53.094;8.778;2022-08-24T18:44:00;28.90;45.00
24678;DHT22;12800;53.094;8.778;2022-08-24T18:46:29;28.80;44.50
24678;DHT22;12800;53.094;8.778;2022-08-24T18:48:59;28.80;44.60
24678;DHT22;12800;53.094;8.778;2022-08-24T18:51:25;28.70;44.80
24678;DHT22;12800;53.094;8.778;2022-08-24T18:54:00;28.70;44.90
24678;DHT22;12800;53.094;8.778;2022-08-24T18:56:26;28.60;45.00
24678;DHT22;12800;53.094;8.778;2022-08-24T18:58:52;28.50;45.20
24678;DHT22;12800;53.094;8.778;2022-08-24T19:01:20;28.50;45.40
24678;DHT22;12800;53.094;8.778;2022-08-24T19:03:46;28.40;45.50
24678;DHT22;12800;53.094;8.778;2022-08-24T19:06:12;28.40;45.60
24678;DHT22;12800;53.094;8.778;2022-08-24T19:08:37;28.30;45.60
24678;DHT22;12800;53.094;8.778;2022-08-24T19:11:04;28.30;45.80
24678;DHT22;12800;53.094;8.778;2022-08-24T19:13:30;28.20;46.50
24678;DHT22;12800;53.094;8.778;2022-08-24T19:15:57;28.10;45.90
24678;DHT22;12800;53.094;8.778;2022-08-24T19:18:23;28.10;46.00
24678;DHT22;12800;53.094;8.778;2022-08-24T19:20:51;28.00;46.10
24678;DHT22;12800;53.094;8.778;2022-08-24T19:23:24;28.00;46.20
24678;DHT22;12800;53.094;8.778;2022-08-24T19:25:52;27.90;46.40
24678;DHT22;12800;53.094;8.778;2022-08-24T19:28:19;27.90;46.50
24678;DHT22;12800;53.094;8.778;2022-08-24T19:30:46;27.90;46.60
24678;DHT22;12800;53.094;8.778;2022-08-24T19:33:18;27.80;46.60
24678;DHT22;12800;53.094;8.778;2022-08-24T19:35:46;27.80;46.70
24678;DHT22;12800;53.094;8.778;2022-08-24T19:38:12;27.70;46.80